sensor_id;sensor_type;location;lat;lon;timestamp;pressure;altitude;pressure_sealevel;temperature;humidity
20696;BME280;10507;52.754;13.040;2023-05-22T00:01:47;100980.16;;;17.54;77.24
20696;BME280;10507;52.754;13.040;2023-05-22T00:04:17;100962.44;;;17.50;77.35
20696;BME280;10507;52.754;13.040;2023-05-22T00:06:47;100968.94;;;17.47;77.86
20696;BME280;10507;52.754;13.040;2023-05-22T00:09:21;100976.41;;;17.43;78.03
20696;BME280;10507;52.754;13.040;2023-05-22T00:11:49;100972.31;;;17.38;78.05
20696;BME280;10507;52.754;13.040;2023-05-22T00:14:19;100969.97;;;17.33;78.08
20696;BME280;10507;52.754;13.040;2023-05-22T00:16:46;100974.72;;;17.30;78.64
20696;BME280;10507;52.754;13.040;2023-05-22T00:19:15;100970.50;;;17.25;78.57
20696;BME280;10507;52.754;13.040;2023-05-22T00:21:44;100971.59;;;17.23;78.14
20696;BME280;10507;52.754;13.040;2023-05-22T00:24:12;100982.72;;;17.18;78.98
20696;BME280;10507;52.754;13.040;2023-05-22T00:26:41;100985.00;;;17.12;78.64
20696;BME280;10507;52.754;13.040;2023-05-22T00:29:09;100981.13;;;17.03;78.94
20696;BME280;10507;52.754;13.040;2023-05-22T00:31:38;100992.50;;;16.95;80.10
20696;BME280;10507;52.754;13.040;2023-05-22T00:34:06;100992.16;;;16.87;80.10
20696;BME280;10507;52.754;13.040;2023-05-22T00:36:34;100990.66;;;16.83;80.50
20696;BME280;10507;52.754;13.040;2023-05-22T00:39:04;100988.19;;;16.80;79.91
20696;BME280;10507;52.754;13.040;2023-05-22T00:41:33;100993.19;;;16.72;80.63
20696;BME280;10507;52.754;13.040;2023-05-22T00:44:01;100991.69;;;16.68;80.79
20696;BME280;10507;52.754;13.040;2023-05-22T00:46:29;100982.22;;;16.62;80.75
20696;BME280;10507;52.754;13.040;2023-05-22T00:48:58;100992.13;;;16.61;80.83
20696;BME280;10507;52.754;13.040;2023-05-22T00:51:26;100992.13;;;16.61;80.32
20696;BME280;10507;52.754;13.040;2023-05-22T00:53:54;100991.38;;;16.59;80.67
20696;BME280;10507;52.754;13.040;2023-05-22T00:56:22;100997.19;;;16.53;80.97
20696;BME280;10507;52.754;13.040;2023-05-22T00:58:52;101011.72;;;16.38;81.82
20696;BME280;10507;52.754;13.040;2023-05-22T01:01:20;101020.75;;;16.24;82.88
20696;BME280;10507;52.754;13.040;2023-05-22T01:03:55;101010.69;;;16.13;83.04
20696;BME280;10507;52.754;13.040;2023-05-22T01:06:26;101020.72;;;16.11;83.11
20696;BME280;10507;52.754;13.040;2023-05-22T01:08:57;101021.13;;;16.05;83.27
20696;BME280;10507;52.754;13.040;2023-05-22T01:11:30;101022.31;;;16.01;83.27
20696;BME280;10507;52.754;13.040;2023-05-22T01:14:01;101032.31;;;15.99;83.15
20696;BME280;10507;52.754;13.040;2023-05-22T01:16:34;101044.16;;;15.96;84.14
20696;BME280;10507;52.754;13.040;2023-05-22T01:19:11;101023.47;;;15.97;83.01
20696;BME280;10507;52.754;13.040;2023-05-22T01:21:53;101036.19;;;15.95;83.45
20696;BME280;10507;52.754;13.040;2023-05-22T01:24:46;101025.72;;;15.90;83.19
20696;BME280;10507;52.754;13.040;2023-05-22T01:30:49;101019.66;;;15.87;83.01
20696;BME280;10507;52.754;13.040;2023-05-22T01:33:17;101043.91;;;15.87;83.23
20696;BME280;10507;52.754;13.040;2023-05-22T01:35:47;101019.47;;;15.90;82.43
20696;BME280;10507;52.754;13.040;2023-05-22T01:38:18;101013.31;;;15.88;82.84
20696;BME280;10507;52.754;13.040;2023-05-22T01:40:47;101012.44;;;15.87;82.40
20696;BME280;10507;52.754;13.040;2023-05-22T01:43:14;100999.19;;;15.84;81.75
20696;BME280;10507;52.754;13.040;2023-05-22T01:45:44;101010.94;;;15.83;81.96
20696;BME280;10507;52.754;13.040;2023-05-22T01:48:12;101002.75;;;15.85;82.09
20696;BME280;10507;52.754;13.040;2023-05-22T01:50:40;101002.09;;;15.81;81.88
20696;BME280;10507;52.754;13.040;2023-05-22T01:53:14;101014.97;;;15.76;82.47
20696;BME280;10507;52.754;13.040;2023-05-22T01:56:02;101009.72;;;15.74;82.38
20696;BME280;10507;52.754;13.040;2023-05-22T01:58:36;101008.16;;;15.70;82.03
20696;BME280;10507;52.754;13.040;2023-05-22T02:01:07;101014.59;;;15.68;82.11
20696;BME280;10507;52.754;13.040;2023-05-22T02:03:38;101023.75;;;15.65;82.34
20696;BME280;10507;52.754;13.040;2023-05-22T02:06:09;101012.00;;;15.66;81.92
20696;BME280;10507;52.754;13.040;2023-05-22T02:08:41;101008.47;;;15.66;82.09
20696;BME280;10507;52.754;13.040;2023-05-22T02:11:10;101010.38;;;15.64;82.35
20696;BME280;10507;52.754;13.040;2023-05-22T02:13:39;100995.09;;;15.64;81.76
20696;BME280;10507;52.754;13.040;2023-05-22T02:16:08;100985.00;;;15.68;81.26
20696;BME280;10507;52.754;13.040;2023-05-22T02:18:37;100985.09;;;15.66;81.17
20696;BME280;10507;52.754;13.040;2023-05-22T02:21:07;100988.94;;;15.62;81.38
20696;BME280;10507;52.754;13.040;2023-05-22T02:23:35;101000.88;;;15.58;81.63
20696;BME280;10507;52.754;13.040;2023-05-22T02:26:04;100987.72;;;15.53;81.96
20696;BME280;10507;52.754;13.040;2023-05-22T02:28:32;100967.91;;;15.54;81.47
20696;BME280;10507;52.754;13.040;2023-05-22T02:31:00;100986.00;;;15.52;81.57
20696;BME280;10507;52.754;13.040;2023-05-22T02:33:31;100981.69;;;15.50;81.63
20696;BME280;10507;52.754;13.040;2023-05-22T02:35:58;100972.63;;;15.51;81.50
20696;BME280;10507;52.754;13.040;2023-05-22T02:38:26;100970.34;;;15.45;81.47
20696;BME280;10507;52.754;13.040;2023-05-22T02:40:54;100974.41;;;15.37;81.68
20696;BME280;10507;52.754;13.040;2023-05-22T02:43:22;100981.69;;;15.35;81.90
20696;BME280;10507;52.754;13.040;2023-05-22T02:45:50;100985.56;;;15.31;82.12
20696;BME280;10507;52.754;13.040;2023-05-22T02:48:18;100985.56;;;15.31;82.08
20696;BME280;10507;52.754;13.040;2023-05-22T02:50:48;100979.59;;;15.26;81.92
20696;BME280;10507;52.754;13.040;2023-05-22T02:53:16;100990.50;;;15.25;82.26
20696;BME280;10507;52.754;13.040;2023-05-22T02:55:45;100989.59;;;15.24;82.39
20696;BME280;10507;52.754;13.040;2023-05-22T02:58:13;100992.50;;;15.21;82.48
20696;BME280;10507;52.754;13.040;2023-05-22T03:00:43;100986.44;;;15.17;82.27
20696;BME280;10507;52.754;13.040;2023-05-22T03:03:11;100986.56;;;15.16;82.42
20696;BME280;10507;52.754;13.040;2023-05-22T03:05:39;100994.63;;;15.16;82.34
20696;BME280;10507;52.754;13.040;2023-05-22T03:08:08;100981.06;;;15.17;82.07
20696;BME280;10507;52.754;13.040;2023-05-22T03:10:37;100975.59;;;15.19;81.59
20696;BME280;10507;52.754;13.040;2023-05-22T03:13:05;100974.81;;;15.17;81.99
20696;BME280;10507;52.754;13.040;2023-05-22T03:15:33;100971.38;;;15.15;82.14
20696;BME280;10507;52.754;13.040;2023-05-22T03:18:00;100980.50;;;15.12;82.59
20696;BME280;10507;52.754;13.040;2023-05-22T03:20:28;100983.97;;;15.14;82.17
20696;BME280;10507;52.754;13.040;2023-05-22T03:22:56;100973.97;;;15.16;82.34
20696;BME280;10507;52.754;13.040;2023-05-22T03:25:26;100968.19;;;15.23;81.41
20696;BME280;10507;52.754;13.040;2023-05-22T03:27:53;100961.63;;;15.27;81.46
20696;BME280;10507;52.754;13.040;2023-05-22T03:30:21;100944.25;;;15.32;80.95
20696;BME280;10507;52.754;13.040;2023-05-22T03:32:49;100969.78;;;15.39;80.89
20696;BME280;10507;52.754;13.040;2023-05-22T03:35:18;100953.25;;;15.46;80.57
20696;BME280;10507;52.754;13.040;2023-05-22T03:37:46;100954.56;;;15.53;80.54
20696;BME280;10507;52.754;13.040;2023-05-22T03:40:14;100951.47;;;15.59;80.12
20696;BME280;10507;52.754;13.040;2023-05-22T03:42:43;100936.72;;;15.65;79.63
20696;BME280;10507;52.754;13.040;2023-05-22T03:45:11;100935.47;;;15.70;79.78
20696;BME280;10507;52.754;13.040;2023-05-22T03:47:39;100927.88;;;15.77;79.48
20696;BME280;10507;52.754;13.040;2023-05-22T03:50:08;100936.19;;;15.87;79.24
20696;BME280;10507;52.754;13.040;2023-05-22T03:52:37;100919.84;;;15.90;79.23
20696;BME280;10507;52.754;13.040;2023-05-22T03:55:06;100914.22;;;15.93;79.09
20696;BME280;10507;52.754;13.040;2023-05-22T03:57:34;100944.22;;;16.01;78.60
20696;BME280;10507;52.754;13.040;2023-05-22T04:00:05;100945.50;;;16.08;79.20
20696;BME280;10507;52.754;13.040;2023-05-22T04:02:35;100936.03;;;16.15;78.11
20696;BME280;10507;52.754;13.040;2023-05-22T04:05:06;100930.22;;;16.21;78.47
20696;BME280;10507;52.754;13.040;2023-05-22T04:07:34;100926.13;;;16.29;77.89
20696;BME280;10507;52.754;13.040;2023-05-22T04:10:03;100920.31;;;16.35;77.77
20696;BME280;10507;52.754;13.040;2023-05-22T04:12:31;100918.06;;;16.41;77.85
20696;BME280;10507;52.754;13.040;2023-05-22T04:14:59;100914.81;;;16.49;77.58
20696;BME280;10507;52.754;13.040;2023-05-22T04:17:31;100919.78;;;16.55;77.34
20696;BME280;10507;52.754;13.040;2023-05-22T04:19:59;100918.38;;;16.62;77.34
20696;BME280;10507;52.754;13.040;2023-05-22T04:22:27;100899.59;;;16.74;76.33
20696;BME280;10507;52.754;13.040;2023-05-22T04:24:56;100884.91;;;16.78;76.41
20696;BME280;10507;52.754;13.040;2023-05-22T04:27:24;100890.75;;;16.85;76.10
20696;BME280;10507;52.754;13.040;2023-05-22T04:29:55;100913.28;;;16.96;76.66
20696;BME280;10507;52.754;13.040;2023-05-22T04:32:28;100887.63;;;16.91;75.97
20696;BME280;10507;52.754;13.040;2023-05-22T04:34:57;100888.03;;;16.97;76.34
20696;BME280;10507;52.754;13.040;2023-05-22T04:37:26;100897.59;;;17.01;76.18
20696;BME280;10507;52.754;13.040;2023-05-22T04:39:57;100873.13;;;17.04;75.84
20696;BME280;10507;52.754;13.040;2023-05-22T04:42:28;100842.91;;;16.99;75.68
20696;BME280;10507;52.754;13.040;2023-05-22T04:44:56;100891.84;;;17.19;75.37
20696;BME280;10507;52.754;13.040;2023-05-22T04:47:24;100929.59;;;17.56;75.39
20696;BME280;10507;52.754;13.040;2023-05-22T04:49:54;100885.16;;;17.60;74.23
20696;BME280;10507;52.754;13.040;2023-05-22T04:52:25;100854.25;;;17.64;73.78
20696;BME280;10507;52.754;13.040;2023-05-22T04:54:54;100876.44;;;17.80;73.53
20696;BME280;10507;52.754;13.040;2023-05-22T04:57:25;100885.81;;;17.88;73.86
20696;BME280;10507;52.754;13.040;2023-05-22T04:59:53;100878.47;;;18.01;73.38
20696;BME280;10507;52.754;13.040;2023-05-22T05:02:22;100906.78;;;18.31;72.90
20696;BME280;10507;52.754;13.040;2023-05-22T05:04:50;100861.31;;;18.47;72.06
20696;BME280;10507;52.754;13.040;2023-05-22T05:07:18;100917.66;;;18.98;71.45
20696;BME280;10507;52.754;13.040;2023-05-22T05:09:48;100885.81;;;19.45;69.82
20696;BME280;10507;52.754;13.040;2023-05-22T05:12:16;100830.31;;;19.93;67.93
20696;BME280;10507;52.754;13.040;2023-05-22T05:14:44;100859.31;;;20.75;66.44
20696;BME280;10507;52.754;13.040;2023-05-22T05:17:13;100805.84;;;21.26;64.52
20696;BME280;10507;52.754;13.040;2023-05-22T05:19:41;100797.84;;;21.53;64.15
20696;BME280;10507;52.754;13.040;2023-05-22T05:22:08;100811.66;;;21.89;63.76
20696;BME280;10507;52.754;13.040;2023-05-22T05:24:36;100781.66;;;22.28;62.35
20696;BME280;10507;52.754;13.040;2023-05-22T05:27:06;100739.94;;;22.37;61.84
20696;BME280;10507;52.754;13.040;2023-05-22T05:29:34;100799.16;;;22.81;62.09
20696;BME280;10507;52.754;13.040;2023-05-22T05:32:03;100731.88;;;23.27;60.26
20696;BME280;10507;52.754;13.040;2023-05-22T05:34:37;100708.97;;;23.38;60.49
20696;BME280;10507;52.754;13.040;2023-05-22T05:37:12;100721.88;;;23.54;60.06
20696;BME280;10507;52.754;13.040;2023-05-22T05:39:45;100712.47;;;23.74;59.34
20696;BME280;10507;52.754;13.040;2023-05-22T05:42:17;100713.13;;;23.94;59.13
20696;BME280;10507;52.754;13.040;2023-05-22T05:44:49;100546.66;;;23.01;59.70
20696;BME280;10507;52.754;13.040;2023-05-22T05:47:17;100706.56;;;23.79;59.31
20696;BME280;10507;52.754;13.040;2023-05-22T05:49:49;100705.47;;;23.98;58.99
20696;BME280;10507;52.754;13.040;2023-05-22T05:52:17;100716.91;;;24.36;58.55
20696;BME280;10507;52.754;13.040;2023-05-22T05:54:45;100731.16;;;24.64;58.59
20696;BME280;10507;52.754;13.040;2023-05-22T05:57:13;100645.03;;;24.78;57.10
20696;BME280;10507;52.754;13.040;2023-05-22T05:59:43;100722.38;;;24.95;57.41
20696;BME280;10507;52.754;13.040;2023-05-22T06:02:11;100638.88;;;24.67;58.05
20696;BME280;10507;52.754;13.040;2023-05-22T06:04:39;100625.38;;;24.66;57.45
20696;BME280;10507;52.754;13.040;2023-05-22T06:07:08;100660.41;;;24.87;57.46
20696;BME280;10507;52.754;13.040;2023-05-22T06:09:36;100605.94;;;24.61;57.49
20696;BME280;10507;52.754;13.040;2023-05-22T06:12:04;100625.69;;;24.46;58.19
20696;BME280;10507;52.754;13.040;2023-05-22T06:14:32;100646.97;;;24.43;58.57
20696;BME280;10507;52.754;13.040;2023-05-22T06:17:01;100627.03;;;24.42;58.41
20696;BME280;10507;52.754;13.040;2023-05-22T06:19:29;100609.72;;;24.09;59.40
20696;BME280;10507;52.754;13.040;2023-05-22T06:21:57;100547.75;;;23.77;59.31
20696;BME280;10507;52.754;13.040;2023-05-22T06:24:25;100656.75;;;24.03;60.08
20696;BME280;10507;52.754;13.040;2023-05-22T06:26:53;100680.19;;;24.30;59.48
20696;BME280;10507;52.754;13.040;2023-05-22T06:29:21;100619.34;;;24.38;58.52
20696;BME280;10507;52.754;13.040;2023-05-22T06:31:49;100625.16;;;24.43;58.26
20696;BME280;10507;52.754;13.040;2023-05-22T06:34:18;100684.09;;;24.62;58.81
20696;BME280;10507;52.754;13.040;2023-05-22T06:36:49;100701.34;;;24.79;58.72
20696;BME280;10507;52.754;13.040;2023-05-22T06:39:17;100681.88;;;24.74;59.70
20696;BME280;10507;52.754;13.040;2023-05-22T06:41:45;100759.63;;;25.12;59.23
20696;BME280;10507;52.754;13.040;2023-05-22T06:44:13;100704.63;;;25.07;59.00
20696;BME280;10507;52.754;13.040;2023-05-22T06:46:41;100763.25;;;25.70;57.61
20696;BME280;10507;52.754;13.040;2023-05-22T06:49:09;100767.59;;;26.20;56.82
20696;BME280;10507;52.754;13.040;2023-05-22T06:51:38;100680.25;;;26.02;56.58
20696;BME280;10507;52.754;13.040;2023-05-22T06:54:06;100593.38;;;25.57;56.65
20696;BME280;10507;52.754;13.040;2023-05-22T06:56:34;100686.13;;;25.75;57.02
20696;BME280;10507;52.754;13.040;2023-05-22T06:59:03;100656.19;;;25.81;56.30
20696;BME280;10507;52.754;13.040;2023-05-22T07:01:31;100734.13;;;26.41;56.19
20696;BME280;10507;52.754;13.040;2023-05-22T07:03:59;100814.06;;;27.24;54.72
20696;BME280;10507;52.754;13.040;2023-05-22T07:06:27;100788.97;;;27.58;54.10
20696;BME280;10507;52.754;13.040;2023-05-22T07:08:59;100685.94;;;27.70;53.58
20696;BME280;10507;52.754;13.040;2023-05-22T07:11:27;100643.66;;;27.50;53.45
20696;BME280;10507;52.754;13.040;2023-05-22T07:13:55;100707.06;;;27.85;53.36
20696;BME280;10507;52.754;13.040;2023-05-22T07:16:24;100668.72;;;27.47;53.79
20696;BME280;10507;52.754;13.040;2023-05-22T07:18:52;100559.69;;;26.96;53.72
20696;BME280;10507;52.754;13.040;2023-05-22T07:21:20;100580.34;;;27.22;53.17
20696;BME280;10507;52.754;13.040;2023-05-22T07:23:51;100593.69;;;27.25;53.64
20696;BME280;10507;52.754;13.040;2023-05-22T07:26:20;100724.72;;;28.05;53.12
20696;BME280;10507;52.754;13.040;2023-05-22T07:28:49;100719.56;;;28.32;52.82
20696;BME280;10507;52.754;13.040;2023-05-22T07:31:17;100763.00;;;28.73;52.66
20696;BME280;10507;52.754;13.040;2023-05-22T07:33:45;100803.28;;;29.60;51.57
20696;BME280;10507;52.754;13.040;2023-05-22T07:36:13;100764.78;;;29.88;50.89
20696;BME280;10507;52.754;13.040;2023-05-22T07:38:42;100724.75;;;30.20;49.84
20696;BME280;10507;52.754;13.040;2023-05-22T07:41:10;100674.84;;;30.02;50.02
20696;BME280;10507;52.754;13.040;2023-05-22T07:43:41;100602.66;;;29.65;50.57
20696;BME280;10507;52.754;13.040;2023-05-22T07:46:09;100657.38;;;29.81;50.69
20696;BME280;10507;52.754;13.040;2023-05-22T07:48:37;100551.09;;;29.46;49.98
20696;BME280;10507;52.754;13.040;2023-05-22T07:51:05;100613.94;;;29.14;51.44
20696;BME280;10507;52.754;13.040;2023-05-22T07:53:34;100612.97;;;29.28;51.14
20696;BME280;10507;52.754;13.040;2023-05-22T07:56:02;100526.13;;;28.84;51.39
20696;BME280;10507;52.754;13.040;2023-05-22T07:58:30;100578.97;;;28.22;53.24
20696;BME280;10507;52.754;13.040;2023-05-22T08:01:01;100595.84;;;28.40;53.08
20696;BME280;10507;52.754;13.040;2023-05-22T08:03:32;100630.09;;;28.80;52.33
20696;BME280;10507;52.754;13.040;2023-05-22T08:06:01;100615.69;;;28.78;52.01
20696;BME280;10507;52.754;13.040;2023-05-22T08:08:30;100690.53;;;29.17;52.00
20696;BME280;10507;52.754;13.040;2023-05-22T08:10:58;100567.00;;;28.66;51.91
20696;BME280;10507;52.754;13.040;2023-05-22T08:13:30;100532.41;;;28.50;52.59
20696;BME280;10507;52.754;13.040;2023-05-22T08:15:58;100692.75;;;29.07;52.76
20696;BME280;10507;52.754;13.040;2023-05-22T08:18:28;100695.31;;;29.58;51.79
20696;BME280;10507;52.754;13.040;2023-05-22T08:20:56;100614.81;;;29.21;51.88
20696;BME280;10507;52.754;13.040;2023-05-22T08:23:25;100523.66;;;28.46;51.77
20696;BME280;10507;52.754;13.040;2023-05-22T08:25:53;100609.25;;;28.65;52.83
20696;BME280;10507;52.754;13.040;2023-05-22T08:28:21;100547.91;;;28.43;52.55
20696;BME280;10507;52.754;13.040;2023-05-22T08:30:49;100524.41;;;27.97;53.57
20696;BME280;10507;52.754;13.040;2023-05-22T08:33:17;100571.81;;;28.06;53.93
20696;BME280;10507;52.754;13.040;2023-05-22T08:35:46;100526.13;;;27.83;53.99
20696;BME280;10507;52.754;13.040;2023-05-22T08:38:14;100549.88;;;28.06;53.15
20696;BME280;10507;52.754;13.040;2023-05-22T08:40:46;100536.47;;;27.66;54.70
20696;BME280;10507;52.754;13.040;2023-05-22T08:43:15;100556.06;;;27.63;54.91
20696;BME280;10507;52.754;13.040;2023-05-22T08:45:43;100541.28;;;27.20;55.80
20696;BME280;10507;52.754;13.040;2023-05-22T08:48:12;100558.66;;;27.12;56.25
20696;BME280;10507;52.754;13.040;2023-05-22T08:50:41;100581.13;;;26.92;57.15
20696;BME280;10507;52.754;13.040;2023-05-22T08:53:11;100451.22;;;26.49;54.83
20696;BME280;10507;52.754;13.040;2023-05-22T08:55:41;100485.09;;;26.48;55.58
20696;BME280;10507;52.754;13.040;2023-05-22T08:58:10;100463.69;;;26.51;54.78
20696;BME280;10507;52.754;13.040;2023-05-22T09:00:39;100458.13;;;26.22;55.35
20696;BME280;10507;52.754;13.040;2023-05-22T09:03:07;100463.75;;;26.05;55.87
20696;BME280;10507;52.754;13.040;2023-05-22T09:05:35;100489.34;;;26.12;56.07
20696;BME280;10507;52.754;13.040;2023-05-22T09:08:05;100495.59;;;25.98;56.44
20696;BME280;10507;52.754;13.040;2023-05-22T09:10:47;100527.44;;;25.91;56.88
20696;BME280;10507;52.754;13.040;2023-05-22T09:13:25;100522.41;;;26.03;56.78
20696;BME280;10507;52.754;13.040;2023-05-22T09:15:57;100435.91;;;25.70;55.97
20696;BME280;10507;52.754;13.040;2023-05-22T09:18:27;100424.84;;;25.33;57.13
20696;BME280;10507;52.754;13.040;2023-05-22T09:20:59;100487.84;;;25.39;57.15
20696;BME280;10507;52.754;13.040;2023-05-22T09:23:32;100547.53;;;25.67;57.80
20696;BME280;10507;52.754;13.040;2023-05-22T09:26:02;100517.00;;;25.55;57.15
20696;BME280;10507;52.754;13.040;2023-05-22T09:28:32;100593.09;;;25.91;57.19
20696;BME280;10507;52.754;13.040;2023-05-22T09:31:01;100538.44;;;25.75;57.33
20696;BME280;10507;52.754;13.040;2023-05-22T09:33:30;100557.06;;;25.79;57.25
20696;BME280;10507;52.754;13.040;2023-05-22T09:35:58;100555.63;;;25.91;56.72
20696;BME280;10507;52.754;13.040;2023-05-22T09:38:28;100606.66;;;26.16;56.98
20696;BME280;10507;52.754;13.040;2023-05-22T09:40:58;100540.75;;;25.94;56.44
20696;BME280;10507;52.754;13.040;2023-05-22T09:43:27;100468.88;;;25.69;55.45
20696;BME280;10507;52.754;13.040;2023-05-22T09:45:56;100506.34;;;25.68;55.87
20696;BME280;10507;52.754;13.040;2023-05-22T09:48:24;100533.53;;;25.62;56.77
20696;BME280;10507;52.754;13.040;2023-05-22T09:50:53;100548.31;;;25.84;56.55
20696;BME280;10507;52.754;13.040;2023-05-22T09:53:25;100471.09;;;25.73;55.19
20696;BME280;10507;52.754;13.040;2023-05-22T09:55:55;100511.78;;;25.77;55.97
20696;BME280;10507;52.754;13.040;2023-05-22T09:58:25;100542.28;;;25.97;56.09
20696;BME280;10507;52.754;13.040;2023-05-22T10:00:55;100505.91;;;25.88;55.33
20696;BME280;10507;52.754;13.040;2023-05-22T10:03:25;100574.84;;;26.15;56.29
20696;BME280;10507;52.754;13.040;2023-05-22T10:05:54;100531.66;;;26.02;55.22
20696;BME280;10507;52.754;13.040;2023-05-22T10:08:24;100558.19;;;26.24;55.49
20696;BME280;10507;52.754;13.040;2023-05-22T10:10:54;100528.94;;;26.25;55.28
20696;BME280;10507;52.754;13.040;2023-05-22T10:13:24;100491.22;;;26.35;54.13
20696;BME280;10507;52.754;13.040;2023-05-22T10:15:54;100540.41;;;26.43;54.95
20696;BME280;10507;52.754;13.040;2023-05-22T10:18:23;100493.16;;;26.26;54.70
20696;BME280;10507;52.754;13.040;2023-05-22T10:20:52;100529.47;;;26.43;54.92
20696;BME280;10507;52.754;13.040;2023-05-22T10:23:21;100496.44;;;26.45;54.42
20696;BME280;10507;52.754;13.040;2023-05-22T10:25:49;100457.59;;;26.03;55.49
20696;BME280;10507;52.754;13.040;2023-05-22T10:28:22;100438.88;;;25.92;54.77
20696;BME280;10507;52.754;13.040;2023-05-22T10:30:57;100514.81;;;26.13;55.46
20696;BME280;10507;52.754;13.040;2023-05-22T10:33:28;100489.34;;;26.12;55.25
20696;BME280;10507;52.754;13.040;2023-05-22T10:36:02;100513.06;;;26.20;55.53
20696;BME280;10507;52.754;13.040;2023-05-22T10:38:56;100463.00;;;26.11;54.85
20696;BME280;10507;52.754;13.040;2023-05-22T10:41:30;100489.69;;;26.09;55.51
20696;BME280;10507;52.754;13.040;2023-05-22T10:44:01;100448.28;;;26.12;54.71
20696;BME280;10507;52.754;13.040;2023-05-22T10:46:32;100488.41;;;26.20;55.61
20696;BME280;10507;52.754;13.040;2023-05-22T10:49:00;100485.22;;;26.17;55.56
20696;BME280;10507;52.754;13.040;2023-05-22T10:51:31;100476.88;;;26.33;55.05
20696;BME280;10507;52.754;13.040;2023-05-22T10:54:00;100450.94;;;26.44;53.93
20696;BME280;10507;52.754;13.040;2023-05-22T10:56:34;100451.66;;;26.38;54.27
20696;BME280;10507;52.754;13.040;2023-05-22T10:59:03;100422.22;;;26.40;53.19
20696;BME280;10507;52.754;13.040;2023-05-22T11:01:35;100480.13;;;26.51;54.48
20696;BME280;10507;52.754;13.040;2023-05-22T11:04:09;100419.38;;;26.33;54.12
20696;BME280;10507;52.754;13.040;2023-05-22T11:06:39;100440.66;;;26.46;53.82
20696;BME280;10507;52.754;13.040;2023-05-22T11:09:28;100500.94;;;26.61;54.40
20696;BME280;10507;52.754;13.040;2023-05-22T11:12:16;100446.75;;;26.48;54.42
20696;BME280;10507;52.754;13.040;2023-05-22T11:14:49;100392.06;;;26.25;54.17
20696;BME280;10507;52.754;13.040;2023-05-22T11:17:21;100396.31;;;26.12;54.54
20696;BME280;10507;52.754;13.040;2023-05-22T11:19:58;100381.41;;;26.30;53.19
20696;BME280;10507;52.754;13.040;2023-05-22T11:22:34;100404.84;;;26.32;53.66
20696;BME280;10507;52.754;13.040;2023-05-22T11:25:05;100400.94;;;26.27;54.37
20696;BME280;10507;52.754;13.040;2023-05-22T11:27:34;100433.06;;;26.48;53.93
20696;BME280;10507;52.754;13.040;2023-05-22T11:30:02;100398.44;;;26.40;53.96
20696;BME280;10507;52.754;13.040;2023-05-22T11:32:34;100430.81;;;26.51;54.08
20696;BME280;10507;52.754;13.040;2023-05-22T11:35:03;100416.13;;;26.52;53.35
20696;BME280;10507;52.754;13.040;2023-05-22T11:37:37;100378.13;;;26.49;53.10
20696;BME280;10507;52.754;13.040;2023-05-22T11:40:07;100440.97;;;26.66;53.99
20696;BME280;10507;52.754;13.040;2023-05-22T11:42:41;100352.69;;;26.64;51.93
20696;BME280;10507;52.754;13.040;2023-05-22T11:45:10;100388.66;;;26.75;52.65
20696;BME280;10507;52.754;13.040;2023-05-22T11:47:39;100346.66;;;26.68;52.10
20696;BME280;10507;52.754;13.040;2023-05-22T11:50:09;100360.44;;;26.75;52.42
20696;BME280;10507;52.754;13.040;2023-05-22T11:52:38;100381.00;;;26.86;52.49
20696;BME280;10507;52.754;13.040;2023-05-22T11:55:07;100360.88;;;26.93;51.37
20696;BME280;10507;52.754;13.040;2023-05-22T11:57:36;100333.66;;;26.92;51.42
20696;BME280;10507;52.754;13.040;2023-05-22T12:00:05;100278.34;;;26.67;51.26
20696;BME280;10507;52.754;13.040;2023-05-22T12:02:34;100308.41;;;26.60;51.62
20696;BME280;10507;52.754;13.040;2023-05-22T12:05:04;100282.03;;;26.74;50.44
20696;BME280;10507;52.754;13.040;2023-05-22T12:07:35;100279.00;;;26.69;50.78
20696;BME280;10507;52.754;13.040;2023-05-22T12:10:04;100358.81;;;26.95;51.32
20696;BME280;10507;52.754;13.040;2023-05-22T12:12:32;100239.03;;;26.74;50.30
20696;BME280;10507;52.754;13.040;2023-05-22T12:15:04;100359.25;;;27.14;51.15
20696;BME280;10507;52.754;13.040;2023-05-22T12:17:34;100268.47;;;27.02;49.58
20696;BME280;10507;52.754;13.040;2023-05-22T12:20:05;100250.63;;;26.91;49.76
20696;BME280;10507;52.754;13.040;2023-05-22T12:22:39;100237.78;;;26.92;49.08
20696;BME280;10507;52.754;13.040;2023-05-22T12:25:12;100238.75;;;26.84;49.38
20696;BME280;10507;52.754;13.040;2023-05-22T12:27:42;100200.03;;;26.72;49.15
20696;BME280;10507;52.754;13.040;2023-05-22T12:30:11;100202.19;;;26.77;48.91
20696;BME280;10507;52.754;13.040;2023-05-22T12:32:45;100180.00;;;26.72;48.63
20696;BME280;10507;52.754;13.040;2023-05-22T12:35:15;100217.19;;;26.81;48.94
20696;BME280;10507;52.754;13.040;2023-05-22T12:37:47;100197.75;;;26.76;49.27
20696;BME280;10507;52.754;13.040;2023-05-22T12:40:15;100215.13;;;26.83;48.78
20696;BME280;10507;52.754;13.040;2023-05-22T12:42:44;100193.78;;;26.79;48.52
20696;BME280;10507;52.754;13.040;2023-05-22T12:45:11;100218.06;;;26.82;49.33
20696;BME280;10507;52.754;13.040;2023-05-22T12:47:39;100230.31;;;26.86;49.27
20696;BME280;10507;52.754;13.040;2023-05-22T12:50:08;100218.00;;;26.96;48.05
20696;BME280;10507;52.754;13.040;2023-05-22T12:52:37;100159.00;;;26.79;47.59
20696;BME280;10507;52.754;13.040;2023-05-22T12:55:06;100231.94;;;26.80;49.24
20696;BME280;10507;52.754;13.040;2023-05-22T12:57:34;100197.09;;;26.74;48.25